createdAt,value
2023-04-04T00:00:12.483Z,3.12
2023-04-04T00:02:40.451Z,3.09
2023-04-04T00:05:10.269Z,3.09
2023-04-04T00:07:38.016Z,3.05
2023-04-04T00:10:06.410Z,3.04
2023-04-04T00:12:34.178Z,2.93
2023-04-04T00:15:02.825Z,2.87
2023-04-04T00:17:30.657Z,2.89
2023-04-04T00:19:58.704Z,2.93
2023-04-04T00:22:28.284Z,2.91
2023-04-04T00:24:56.048Z,2.91
2023-04-04T00:27:23.884Z,2.89
2023-04-04T00:29:51.706Z,2.91
2023-04-04T00:32:19.544Z,2.98
2023-04-04T00:34:47.310Z,2.92
2023-04-04T00:37:14.990Z,2.94
2023-04-04T00:39:44.764Z,2.96
2023-04-04T00:42:12.828Z,2.93
2023-04-04T00:44:40.549Z,2.92
2023-04-04T00:47:08.360Z,2.89
2023-04-04T00:49:37.818Z,2.88
2023-04-04T00:52:07.415Z,2.88
2023-04-04T00:54:36.034Z,2.85
2023-04-04T00:57:08.109Z,2.84
2023-04-04T00:59:36.250Z,2.84
2023-04-04T01:02:04.205Z,2.80
2023-04-04T01:04:32.081Z,2.78
2023-04-04T01:07:00.553Z,2.77
2023-04-04T01:09:28.831Z,2.70
2023-04-04T01:11:57.320Z,2.73
2023-04-04T01:14:26.531Z,2.64
2023-04-04T01:16:55.003Z,2.58
2023-04-04T01:19:30.085Z,2.54
2023-04-04T01:22:00.545Z,2.52
2023-04-04T01:24:33.710Z,2.51
2023-04-04T01:27:03.019Z,2.49
2023-04-04T01:29:31.020Z,2.46
2023-04-04T01:32:05.207Z,2.41
2023-04-04T01:34:43.471Z,2.32
2023-04-04T01:37:19.476Z,2.23
2023-04-04T01:39:50.731Z,2.19
2023-04-04T01:42:21.056Z,2.19
2023-04-04T01:44:49.010Z,2.24
2023-04-04T01:47:16.984Z,2.22
2023-04-04T01:49:44.736Z,2.13
2023-04-04T01:52:12.507Z,2.08
2023-04-04T01:54:40.473Z,2.04
2023-04-04T01:57:08.535Z,2.04
2023-04-04T01:59:37.705Z,2.03
2023-04-04T02:02:05.797Z,2.04
2023-04-04T02:04:34.054Z,2.00
2023-04-04T02:07:01.965Z,2.00
2023-04-04T02:09:29.720Z,1.98
2023-04-04T02:11:57.474Z,1.95
2023-04-04T02:14:25.186Z,1.96
2023-04-04T02:16:54.340Z,1.93
2023-04-04T02:19:22.023Z,1.95
2023-04-04T02:21:49.730Z,1.95
2023-04-04T02:24:17.416Z,1.88
2023-04-04T02:26:45.141Z,1.88
2023-04-04T02:29:13.237Z,1.90
2023-04-04T02:31:41.060Z,1.88
2023-04-04T02:34:10.191Z,1.87
2023-04-04T02:36:38.116Z,1.88
2023-04-04T02:39:05.947Z,1.87
2023-04-04T02:41:33.742Z,1.87
2023-04-04T02:44:01.473Z,1.88
2023-04-04T02:46:29.231Z,1.85
2023-04-04T02:48:57.460Z,1.82
2023-04-04T02:51:26.589Z,1.81
2023-04-04T02:53:54.318Z,1.77
2023-04-04T02:56:22.105Z,1.75
2023-04-04T02:58:49.867Z,1.74
2023-04-04T03:01:17.765Z,1.76
2023-04-04T03:03:46.590Z,1.76
2023-04-04T03:06:14.917Z,1.77
2023-04-04T03:08:44.035Z,1.79
2023-04-04T03:11:11.933Z,1.81
2023-04-04T03:13:39.619Z,1.80
2023-04-04T03:16:07.821Z,1.77
2023-04-04T03:18:36.007Z,1.74
2023-04-04T03:21:03.819Z,1.69
2023-04-04T03:23:31.534Z,1.66
2023-04-04T03:26:00.792Z,1.65
2023-04-04T03:28:29.249Z,1.68
2023-04-04T03:30:57.636Z,1.69
2023-04-04T03:33:25.476Z,1.69
2023-04-04T03:35:53.211Z,1.71
2023-04-04T03:38:20.970Z,1.68
2023-04-04T03:40:48.692Z,1.63
2023-04-04T03:43:17.842Z,1.53
2023-04-04T03:45:45.737Z,1.46
2023-04-04T03:48:13.770Z,1.36
2023-04-04T03:50:41.767Z,1.33
2023-04-04T03:53:09.809Z,1.32
2023-04-04T03:55:37.522Z,1.27
2023-04-04T03:58:05.349Z,1.22
2023-04-04T04:00:37.328Z,1.17
2023-04-04T04:03:05.200Z,1.16
2023-04-04T04:05:33.022Z,1.13
2023-04-04T04:08:00.854Z,1.14
2023-04-04T04:10:28.620Z,1.09
2023-04-04T04:12:57.054Z,1.04
2023-04-04T04:15:24.778Z,1.02
2023-04-04T04:17:53.893Z,1.02
2023-04-04T04:20:21.659Z,1.00
2023-04-04T04:22:51.011Z,0.95
2023-04-04T04:25:20.494Z,0.92
2023-04-04T04:27:48.259Z,0.92
2023-04-04T04:30:16.239Z,0.92
2023-04-04T04:32:43.944Z,0.96
2023-04-04T04:35:13.115Z,0.91
2023-04-04T04:37:40.975Z,0.86
2023-04-04T04:40:10.616Z,0.80
2023-04-04T04:42:38.377Z,0.81
2023-04-04T04:45:07.295Z,0.82
2023-04-04T04:47:35.048Z,0.83
2023-04-04T04:50:02.869Z,0.83
2023-04-04T04:52:32.292Z,0.82
2023-04-04T04:55:00.008Z,0.79
2023-04-04T04:57:28.352Z,0.81
2023-04-04T04:59:56.071Z,0.80
2023-04-04T05:02:24.023Z,0.80
2023-04-04T05:04:51.854Z,0.79
2023-04-04T05:07:19.564Z,0.77
2023-04-04T05:09:48.669Z,0.75
2023-04-04T05:12:16.446Z,0.72
2023-04-04T05:14:44.660Z,0.70
2023-04-04T05:17:12.342Z,0.70
2023-04-04T05:19:40.107Z,0.71
2023-04-04T05:22:08.482Z,0.73
2023-04-04T05:24:36.261Z,0.72
2023-04-04T05:27:05.644Z,0.73
2023-04-04T05:29:33.412Z,0.73
2023-04-04T05:32:01.205Z,0.74
2023-04-04T05:34:28.962Z,0.72
2023-04-04T05:36:56.702Z,0.71
2023-04-04T05:39:24.497Z,0.76
2023-04-04T05:41:52.232Z,0.77
2023-04-04T05:44:21.362Z,0.74
2023-04-04T05:46:49.141Z,0.73
2023-04-04T05:49:17.003Z,0.71
2023-04-04T05:51:44.764Z,0.73
2023-04-04T05:54:12.512Z,0.73
2023-04-04T05:56:40.445Z,0.71
2023-04-04T05:59:08.357Z,0.68
2023-04-04T06:01:37.481Z,0.70
2023-04-04T06:04:05.364Z,0.71
2023-04-04T06:06:33.205Z,0.71
2023-04-04T06:09:00.962Z,0.74
2023-04-04T06:11:28.971Z,0.77
2023-04-04T06:13:56.741Z,0.80
2023-04-04T06:16:24.628Z,0.86
2023-04-04T06:18:53.805Z,0.89
2023-04-04T06:21:21.555Z,0.93
2023-04-04T06:23:49.332Z,0.99
2023-04-04T06:26:17.106Z,1.03
2023-04-04T06:28:49.418Z,1.08
2023-04-04T06:31:17.300Z,1.14
2023-04-04T06:33:45.480Z,1.20
2023-04-04T06:36:14.712Z,1.20
2023-04-04T06:38:42.534Z,1.26
2023-04-04T06:41:10.296Z,1.37
2023-04-04T06:43:38.037Z,1.47
2023-04-04T06:46:06.721Z,1.54
2023-04-04T06:48:34.479Z,1.64
2023-04-04T06:51:02.325Z,1.76
2023-04-04T06:53:32.270Z,1.88
2023-04-04T06:56:00.068Z,2.02
2023-04-04T06:58:27.858Z,2.15
2023-04-04T07:00:56.566Z,2.22
2023-04-04T07:03:24.754Z,2.26
2023-04-04T07:05:52.559Z,2.37
2023-04-04T07:08:20.435Z,2.46
2023-04-04T07:10:49.552Z,2.61
2023-04-04T07:13:17.300Z,2.79
2023-04-04T07:15:48.785Z,2.92
2023-04-04T07:18:16.672Z,3.03
2023-04-04T07:20:44.684Z,3.16
2023-04-04T07:23:12.423Z,3.30
2023-04-04T07:25:41.470Z,3.49
2023-04-04T07:28:13.518Z,3.69
2023-04-04T07:30:41.865Z,3.84
2023-04-04T07:33:10.015Z,3.96
2023-04-04T07:35:38.047Z,4.00
2023-04-04T07:38:06.289Z,4.12
2023-04-04T07:40:34.110Z,4.36
2023-04-04T07:43:01.823Z,4.52
2023-04-04T07:45:31.184Z,4.70
2023-04-04T07:47:59.395Z,4.81
2023-04-04T07:50:27.358Z,4.89
2023-04-04T07:52:56.083Z,5.05
2023-04-04T07:55:25.258Z,5.20
2023-04-04T07:57:53.512Z,5.39
2023-04-04T08:00:22.667Z,5.52
2023-04-04T08:02:54.717Z,5.74
2023-04-04T08:05:22.692Z,5.81
2023-04-04T08:07:50.563Z,5.93
2023-04-04T08:10:19.193Z,5.97
2023-04-04T08:12:47.134Z,6.10
2023-04-04T08:15:15.030Z,6.20
2023-04-04T08:17:43.520Z,6.35
2023-04-04T08:20:14.315Z,6.40
2023-04-04T08:22:43.393Z,6.68
2023-04-04T08:25:11.319Z,6.73
2023-04-04T08:27:41.056Z,6.71
2023-04-04T08:30:10.183Z,6.77
2023-04-04T08:32:37.971Z,6.85
2023-04-04T08:35:06.474Z,6.94
2023-04-04T08:37:36.161Z,7.01
2023-04-04T08:40:04.292Z,7.05
2023-04-04T08:42:35.801Z,7.14
2023-04-04T08:45:05.412Z,7.29
2023-04-04T08:47:36.096Z,7.27
2023-04-04T08:50:07.229Z,7.35
2023-04-04T08:52:36.820Z,7.48
2023-04-04T08:55:06.284Z,7.60
2023-04-04T08:57:34.325Z,7.76
2023-04-04T09:00:03.224Z,7.90
2023-04-04T09:02:35.988Z,7.94
2023-04-04T09:05:06.725Z,7.92
2023-04-04T09:07:38.769Z,7.97
2023-04-04T09:10:09.855Z,8.05
2023-04-04T09:12:39.066Z,8.10
2023-04-04T09:15:07.818Z,8.15
2023-04-04T09:17:35.735Z,8.28
2023-04-04T09:20:05.103Z,8.29
2023-04-04T09:22:32.922Z,8.38
2023-04-04T09:25:02.036Z,8.42
2023-04-04T09:27:29.779Z,8.51
2023-04-04T09:30:05.685Z,8.54
2023-04-04T09:32:34.903Z,8.43
2023-04-04T09:35:03.344Z,8.46
2023-04-04T09:37:31.721Z,8.49
2023-04-04T09:39:59.560Z,8.44
2023-04-04T09:42:29.296Z,8.51
2023-04-04T09:44:57.549Z,8.39
2023-04-04T09:49:59.524Z,8.54
2023-04-04T09:52:27.918Z,8.72
2023-04-04T09:54:59.796Z,8.62
2023-04-04T09:57:30.469Z,8.95
2023-04-04T10:00:00.144Z,8.89
2023-04-04T10:02:28.557Z,9.05
2023-04-04T10:05:05.880Z,9.03
2023-04-04T10:07:34.672Z,9.03
2023-04-04T10:10:04.984Z,9.09
2023-04-04T10:12:34.670Z,9.12
2023-04-04T10:15:03.358Z,9.09
2023-04-04T10:17:32.213Z,9.19
2023-04-04T10:20:02.343Z,9.29
2023-04-04T10:22:30.459Z,9.28
2023-04-04T10:24:59.065Z,9.14
2023-04-04T10:27:27.386Z,9.10
2023-04-04T10:29:57.251Z,8.99
2023-04-04T10:32:34.782Z,8.99
2023-04-04T10:35:05.235Z,9.16
2023-04-04T10:37:38.500Z,9.29
2023-04-04T10:40:10.477Z,9.36
2023-04-04T10:42:40.853Z,9.56
2023-04-04T10:45:20.385Z,9.55
2023-04-04T10:47:49.939Z,9.55
2023-04-04T10:50:17.694Z,9.66
2023-04-04T10:52:46.733Z,9.64
2023-04-04T10:55:15.979Z,9.40
2023-04-04T10:57:47.265Z,9.11
2023-04-04T11:00:19.338Z,9.38
2023-04-04T11:02:49.984Z,9.53
2023-04-04T11:05:22.916Z,9.66
2023-04-04T11:08:07.627Z,9.81
2023-04-04T11:10:38.021Z,9.90
2023-04-04T11:13:14.036Z,9.85
2023-04-04T11:15:55.844Z,9.90
2023-04-04T11:18:45.568Z,10.02
2023-04-04T11:21:16.748Z,10.09
2023-04-04T11:24:15.789Z,10.21
2023-04-04T11:26:45.462Z,10.28
2023-04-04T11:29:22.273Z,10.25
2023-04-04T11:31:53.308Z,10.21
2023-04-04T11:34:34.315Z,9.68
2023-04-04T11:37:17.609Z,9.65
2023-04-04T11:39:50.694Z,9.79
2023-04-04T11:42:21.928Z,9.82
2023-04-04T11:45:04.018Z,9.87
2023-04-04T11:47:33.752Z,9.90
2023-04-04T11:50:02.306Z,10.10
2023-04-04T11:52:35.041Z,10.19
2023-04-04T11:55:02.905Z,10.33
2023-04-04T11:57:30.667Z,10.44
2023-04-04T11:59:58.805Z,10.26
2023-04-04T12:02:31.893Z,10.30
2023-04-04T12:05:01.642Z,10.58
2023-04-04T12:07:30.524Z,10.66
2023-04-04T12:09:58.983Z,10.68
2023-04-04T12:12:27.612Z,10.82
2023-04-04T12:15:06.168Z,11.01
2023-04-04T12:17:40.698Z,11.15
2023-04-04T12:20:11.598Z,11.27
2023-04-04T12:22:39.763Z,11.03
2023-04-04T12:25:08.683Z,10.97
2023-04-04T12:27:37.976Z,10.96
2023-04-04T12:30:11.253Z,10.74
2023-04-04T12:32:39.360Z,10.81
2023-04-04T12:35:08.399Z,11.14
2023-04-04T12:37:37.977Z,11.24
2023-04-04T12:40:07.458Z,11.22
2023-04-04T12:42:35.989Z,11.16
2023-04-04T12:45:05.294Z,10.99
2023-04-04T12:47:33.149Z,11.05
2023-04-04T12:50:01.170Z,10.90
2023-04-04T12:52:32.302Z,10.70
2023-04-04T12:55:09.812Z,10.88
2023-04-04T12:57:40.523Z,10.89
2023-04-04T13:00:09.685Z,11.30
2023-04-04T13:02:38.927Z,11.51
2023-04-04T13:05:08.283Z,11.58
2023-04-04T13:07:42.974Z,11.68
2023-04-04T13:10:15.891Z,11.91
2023-04-04T13:12:58.439Z,11.94
2023-04-04T13:15:50.362Z,11.95
2023-04-04T13:18:21.169Z,12.10
2023-04-04T13:20:49.098Z,12.23
2023-04-04T13:23:17.638Z,12.30
2023-04-04T13:25:47.153Z,12.40
2023-04-04T13:28:15.084Z,12.53
2023-04-04T13:30:46.783Z,12.60
2023-04-04T13:33:14.695Z,12.57
2023-04-04T13:35:43.887Z,12.70
2023-04-04T13:38:12.744Z,12.70
2023-04-04T13:40:40.782Z,12.56
2023-04-04T13:43:11.328Z,12.48
2023-04-04T13:45:39.572Z,12.51
2023-04-04T13:48:07.677Z,12.59
2023-04-04T13:50:37.213Z,12.66
2023-04-04T13:53:05.143Z,12.68
2023-04-04T13:55:33.009Z,12.73
2023-04-04T13:58:00.836Z,12.75
2023-04-04T14:00:29.970Z,12.75
2023-04-04T14:02:58.755Z,12.26
2023-04-04T14:05:26.626Z,12.30
2023-04-04T14:07:54.484Z,12.26
2023-04-04T14:10:22.262Z,12.46
2023-04-04T14:12:50.109Z,12.56
2023-04-04T14:15:18.664Z,12.57
2023-04-04T14:17:47.846Z,12.06
2023-04-04T14:20:16.665Z,11.90
2023-04-04T14:22:44.727Z,11.97
2023-04-04T14:25:12.532Z,12.04
2023-04-04T14:27:40.397Z,12.09
2023-04-04T14:30:09.186Z,12.02
2023-04-04T14:32:37.024Z,11.92
2023-04-04T14:35:07.017Z,11.84
2023-04-04T14:37:34.753Z,12.07
2023-04-04T14:40:02.691Z,12.12
2023-04-04T14:42:30.491Z,12.14
2023-04-04T14:44:58.631Z,12.11
2023-04-04T14:47:26.522Z,11.98
2023-04-04T14:49:54.990Z,11.94
2023-04-04T14:52:25.112Z,12.05
2023-04-04T14:54:52.951Z,11.93
2023-04-04T14:57:20.981Z,12.09
2023-04-04T14:59:48.781Z,12.21
2023-04-04T15:02:16.821Z,12.16
2023-04-04T15:04:44.813Z,12.29
2023-04-04T15:07:12.795Z,12.39
2023-04-04T15:09:41.910Z,12.54
2023-04-04T15:12:09.783Z,12.55
2023-04-04T15:14:37.607Z,12.58
2023-04-04T15:17:05.518Z,12.31
2023-04-04T15:19:33.468Z,12.10
2023-04-04T15:22:01.600Z,12.12
2023-04-04T15:24:29.407Z,12.18
2023-04-04T15:26:58.573Z,12.23
2023-04-04T15:29:26.328Z,12.23
2023-04-04T15:31:54.159Z,12.25
2023-04-04T15:34:21.910Z,12.28
2023-04-04T15:36:50.819Z,12.25
2023-04-04T15:39:18.774Z,12.24
2023-04-04T15:41:46.556Z,12.09
2023-04-04T15:44:16.493Z,11.96
2023-04-04T15:46:45.438Z,11.88
2023-04-04T15:49:13.211Z,11.62
2023-04-04T15:51:43.712Z,11.72
2023-04-04T15:54:11.579Z,11.88
2023-04-04T15:56:39.374Z,11.69
2023-04-04T15:59:07.547Z,11.43
2023-04-04T16:01:37.495Z,11.34
2023-04-04T16:04:05.527Z,11.50
2023-04-04T16:06:33.301Z,11.61
2023-04-04T16:09:01.218Z,11.42
2023-04-04T16:11:28.967Z,11.47
2023-04-04T16:13:56.771Z,11.54
2023-04-04T16:16:24.644Z,11.47
2023-04-04T16:18:53.859Z,11.24
2023-04-04T16:21:21.619Z,11.38
2023-04-04T16:23:49.380Z,11.38
2023-04-04T16:26:17.244Z,11.28
2023-04-04T16:28:46.945Z,11.08
2023-04-04T16:31:15.455Z,11.06
2023-04-04T16:33:43.537Z,10.97
2023-04-04T16:36:12.790Z,11.10
2023-04-04T16:38:40.566Z,11.03
2023-04-04T16:41:08.416Z,11.11
2023-04-04T16:43:36.360Z,11.11
2023-04-04T16:46:04.242Z,10.99
2023-04-04T16:48:32.040Z,10.89
2023-04-04T16:50:59.827Z,10.90
2023-04-04T16:53:29.018Z,10.98
2023-04-04T16:55:56.795Z,11.01
2023-04-04T16:58:24.571Z,10.99
2023-04-04T17:00:52.430Z,11.00
2023-04-04T17:03:20.212Z,11.04
2023-04-04T17:05:48.230Z,10.90
2023-04-04T17:08:16.021Z,10.90
2023-04-04T17:10:45.226Z,10.90
2023-04-04T17:13:13.004Z,10.89
2023-04-04T17:15:40.942Z,10.89
2023-04-04T17:18:09.023Z,10.93
2023-04-04T17:20:38.053Z,10.98
2023-04-04T17:23:06.175Z,10.81
2023-04-04T17:25:33.930Z,10.72
2023-04-04T17:28:04.230Z,10.74
2023-04-04T17:30:32.212Z,10.67
2023-04-04T17:33:00.138Z,10.60
2023-04-04T17:35:28.043Z,10.55
2023-04-04T17:37:56.067Z,10.60
2023-04-04T17:40:23.873Z,10.56
2023-04-04T17:42:51.810Z,10.56
2023-04-04T17:45:21.082Z,10.48
2023-04-04T17:47:49.076Z,10.49
2023-04-04T17:50:16.989Z,10.37
2023-04-04T17:52:44.726Z,10.27
2023-04-04T17:55:12.731Z,10.27
2023-04-04T17:57:41.075Z,10.27
2023-04-04T18:00:11.025Z,10.30
2023-04-04T18:02:40.454Z,10.26
2023-04-04T18:05:10.234Z,10.12
2023-04-04T18:07:38.020Z,10.05
2023-04-04T18:10:06.802Z,10.08
2023-04-04T18:12:35.816Z,10.02
2023-04-04T18:15:04.240Z,10.01
2023-04-04T18:17:33.354Z,9.84
2023-04-04T18:20:04.229Z,9.80
2023-04-04T18:22:32.361Z,9.72
2023-04-04T18:25:00.594Z,9.63
2023-04-04T18:27:28.332Z,9.56
2023-04-04T18:29:56.091Z,9.52
2023-04-04T18:32:26.368Z,9.50
2023-04-04T18:34:54.178Z,9.45
2023-04-04T18:37:23.306Z,9.38
2023-04-04T18:39:51.177Z,9.29
2023-04-04T18:42:18.973Z,9.15
2023-04-04T18:44:46.984Z,9.10
2023-04-04T18:47:14.803Z,8.96
2023-04-04T18:49:42.585Z,8.87
2023-04-04T18:52:10.511Z,8.85
2023-04-04T18:54:39.752Z,8.78
2023-04-04T18:57:07.532Z,8.75
2023-04-04T18:59:35.305Z,8.74
2023-04-04T19:02:03.207Z,8.71
2023-04-04T19:04:31.738Z,8.66
2023-04-04T19:07:06.295Z,8.55
2023-04-04T19:09:34.400Z,8.47
2023-04-04T19:12:03.960Z,8.34
2023-04-04T19:14:31.779Z,8.28
2023-04-04T19:16:59.695Z,8.21
2023-04-04T19:19:27.579Z,8.12
2023-04-04T19:21:55.404Z,8.09
2023-04-04T19:24:23.166Z,8.09
2023-04-04T19:26:50.957Z,8.04
2023-04-04T19:29:22.659Z,8.02
2023-04-04T19:31:50.552Z,7.98
2023-04-04T19:34:18.672Z,7.93
2023-04-04T19:36:46.607Z,7.85
2023-04-04T19:39:20.763Z,7.76
2023-04-04T19:41:48.540Z,7.73
2023-04-04T19:44:21.315Z,7.64
2023-04-04T19:46:49.356Z,7.57
2023-04-04T19:49:17.958Z,7.51
2023-04-04T19:51:53.529Z,7.50
2023-04-04T19:54:26.293Z,7.47
2023-04-04T19:57:00.315Z,7.48
2023-04-04T19:59:55.796Z,7.42
2023-04-04T20:02:54.467Z,7.38
2023-04-04T20:05:52.019Z,7.33
2023-04-04T20:08:19.764Z,7.31
2023-04-04T20:10:47.686Z,7.21
2023-04-04T20:13:15.492Z,7.20
2023-04-04T20:16:06.588Z,7.16
2023-04-04T20:18:36.274Z,7.13
2023-04-04T20:21:07.644Z,7.10
2023-04-04T20:23:46.593Z,7.05
2023-04-04T20:26:34.971Z,7.02
2023-04-04T20:29:02.951Z,6.96
2023-04-04T20:31:35.929Z,6.90
2023-04-04T20:34:06.887Z,6.86
2023-04-04T20:36:42.883Z,6.86
2023-04-04T20:39:39.182Z,6.83
2023-04-04T20:42:29.951Z,6.81
2023-04-04T20:45:00.632Z,6.78
2023-04-04T20:47:44.769Z,6.76
2023-04-04T20:50:43.516Z,6.71
2023-04-04T20:53:18.581Z,6.64
2023-04-04T20:55:46.355Z,6.62
2023-04-04T20:58:27.974Z,6.57
2023-04-04T21:00:56.910Z,6.55
2023-04-04T21:03:32.464Z,6.48
2023-04-04T21:06:03.521Z,6.47
2023-04-04T21:08:39.213Z,6.42
2023-04-04T21:11:07.852Z,6.37
2023-04-04T21:13:37.890Z,6.33
2023-04-04T21:16:09.664Z,6.29
2023-04-04T21:18:39.964Z,6.25
2023-04-04T21:21:13.077Z,6.25
2023-04-04T21:23:45.811Z,6.24
2023-04-04T21:26:22.614Z,6.27
2023-04-04T21:28:51.401Z,6.24
2023-04-04T21:31:23.850Z,6.22
2023-04-04T21:33:54.775Z,6.16
2023-04-04T21:36:29.787Z,6.15
2023-04-04T21:38:59.359Z,6.13
2023-04-04T21:41:28.394Z,6.12
2023-04-04T21:43:58.112Z,6.10
2023-04-04T21:46:27.730Z,6.10
2023-04-04T21:48:57.505Z,6.08
2023-04-04T21:51:26.208Z,6.03
2023-04-04T21:53:54.722Z,6.02
2023-04-04T21:56:27.108Z,6.02
2023-04-04T21:58:55.516Z,6.01
2023-04-04T22:01:23.395Z,5.96
2023-04-04T22:03:51.250Z,5.94
2023-04-04T22:06:22.243Z,5.86
2023-04-04T22:08:50.030Z,5.76
2023-04-04T22:11:19.307Z,5.69
2023-04-04T22:13:48.185Z,5.66
2023-04-04T22:16:16.999Z,5.65
2023-04-04T22:18:46.897Z,5.62
2023-04-04T22:21:15.560Z,5.56
2023-04-04T22:23:44.740Z,5.48
2023-04-04T22:26:15.037Z,5.42
2023-04-04T22:28:45.801Z,5.36
2023-04-04T22:31:13.861Z,5.34
2023-04-04T22:33:41.809Z,5.30
2023-04-04T22:36:10.364Z,5.26
2023-04-04T22:38:39.333Z,5.24
2023-04-04T22:41:08.432Z,5.23
2023-04-04T22:43:36.199Z,5.23
2023-04-04T22:46:04.003Z,5.17
2023-04-04T22:48:31.775Z,5.15
2023-04-04T22:51:02.797Z,5.15
2023-04-04T22:53:30.545Z,5.12
2023-04-04T22:56:00.667Z,5.11
2023-04-04T22:58:29.803Z,5.10
2023-04-04T23:00:57.615Z,5.13
2023-04-04T23:03:25.366Z,5.13
2023-04-04T23:05:53.077Z,5.13
2023-04-04T23:08:20.968Z,5.14
2023-04-04T23:10:48.709Z,5.14
2023-04-04T23:13:16.488Z,5.13
2023-04-04T23:15:45.649Z,5.12
2023-04-04T23:18:13.528Z,5.05
2023-04-04T23:20:42.626Z,5.02
2023-04-04T23:23:10.656Z,4.94
2023-04-04T23:25:38.413Z,4.91
2023-04-04T23:28:06.218Z,4.87
2023-04-04T23:30:34.180Z,4.88
2023-04-04T23:33:03.242Z,4.88
2023-04-04T23:35:31.160Z,4.89
2023-04-04T23:37:58.910Z,4.87
2023-04-04T23:40:26.694Z,4.85
2023-04-04T23:42:54.390Z,4.81
2023-04-04T23:45:22.343Z,4.80
2023-04-04T23:47:50.160Z,4.80
2023-04-04T23:50:19.506Z,4.79
2023-04-04T23:52:47.283Z,4.78
2023-04-04T23:55:17.033Z,4.76
2023-04-04T23:57:44.977Z,4.74
